Time;durP1;ratioP1;P1;durP2;ratioP2;P2;SDS_P1;SDS_P2;PMS_P1;PMS_P2;Temp;Humidity;BMP_temperature;BMP_pressure;BME280_temperature;BME280_humidity;BME280_pressure;Samples;Min_cycle;Max_cycle;Signal;HPM_P1;HPM_P2
2023/10/02 00:00:41;;;;;;;14.07;8.52;;;19.60;87.70;;;;;;5051141;28;20021;-70
2023/10/02 00:03:09;;;;;;;11.18;8.40;;;19.60;87.80;;;;;;5051993;28;20025;-71
2023/10/02 00:05:50;;;;;;;15.45;8.55;;;19.60;87.90;;;;;;5051838;28;20057;-71
2023/10/02 00:08:31;;;;;;;11.27;8.38;;;19.50;88.20;;;;;;5051801;28;20033;-71
2023/10/02 00:11:35;;;;;;;13.83;8.27;;;19.60;88.20;;;;;;5051927;28;20123;-71
2023/10/02 00:14:18;;;;;;;17.23;8.27;;;19.60;88.20;;;;;;5051672;28;20036;-71
2023/10/02 00:16:40;;;;;;;13.32;8.73;;;19.60;88.10;;;;;;5051431;28;20029;-70
2023/10/02 00:19:18;;;;;;;14.05;8.60;;;19.50;88.20;;;;;;5051673;28;20036;-71
2023/10/02 00:21:45;;;;;;;15.82;8.48;;;19.50;88.40;;;;;;5051658;28;20037;-71
2023/10/02 00:24:12;;;;;;;12.45;8.40;;;19.50;88.50;;;;;;5051966;28;20044;-70
2023/10/02 00:26:38;;;;;;;15.40;8.25;;;19.50;88.70;;;;;;5051615;28;20025;-71
2023/10/02 00:29:07;;;;;;;13.40;8.50;;;19.50;88.70;;;;;;5051890;28;20052;-70
2023/10/02 00:31:36;;;;;;;11.88;8.27;;;19.40;88.70;;;;;;5051506;28;20021;-70
2023/10/02 00:34:03;;;;;;;12.00;8.15;;;19.40;88.90;;;;;;5051327;28;20039;-70
2023/10/02 00:36:30;;;;;;;16.73;8.85;;;19.40;88.80;;;;;;5051441;28;20103;-70
2023/10/02 00:42:09;;;;;;;22.48;9.48;;;19.40;88.70;;;;;;5054405;28;20128;-70
2023/10/02 00:44:51;;;;;;;18.15;9.00;;;19.40;88.60;;;;;;5055011;28;20124;-71
2023/10/02 00:47:15;;;;;;;15.73;9.10;;;19.30;88.50;;;;;;5054713;28;20049;-71
2023/10/02 00:49:42;;;;;;;17.63;8.77;;;19.30;88.60;;;;;;5055215;28;20107;-70
2023/10/02 00:52:08;;;;;;;23.90;9.05;;;19.30;88.70;;;;;;5055004;28;20025;-70
2023/10/02 00:54:35;;;;;;;13.35;8.43;;;19.20;88.90;;;;;;5055224;28;20044;-71
2023/10/02 00:57:16;;;;;;;21.27;9.18;;;19.20;88.90;;;;;;5055137;28;20018;-70
2023/10/02 00:59:45;;;;;;;13.82;8.23;;;19.20;88.90;;;;;;5051479;28;20029;-71
2023/10/02 01:02:11;;;;;;;17.52;8.52;;;19.20;89.40;;;;;;5052012;28;20033;-71
2023/10/02 01:04:37;;;;;;;12.18;7.80;;;19.20;89.30;;;;;;5052948;28;20560;-71
2023/10/02 01:07:11;;;;;;;11.15;8.23;;;19.20;89.20;;;;;;5054758;28;20108;-70
2023/10/02 01:09:39;;;;;;;14.80;7.85;;;19.20;89.10;;;;;;5054693;28;20098;-71
2023/10/02 01:12:11;;;;;;;13.63;7.78;;;19.10;89.20;;;;;;5054344;28;20036;-70
2023/10/02 01:14:52;;;;;;;;;;;19.10;89.30;;;;;;5054734;28;20116;-70
2023/10/02 01:17:21;;;;;;;10.77;7.90;;;19.10;89.30;;;;;;5054945;28;19948;-70
2023/10/02 01:19:53;;;;;;;15.38;8.60;;;19.10;89.20;;;;;;5054566;28;20491;-71
2023/10/02 01:22:42;;;;;;;11.05;7.63;;;19.10;89.30;;;;;;5054265;28;20033;-70
2023/10/02 01:25:15;;;;;;;15.43;8.43;;;19.10;89.30;;;;;;5054594;28;20104;-71
2023/10/02 01:27:46;;;;;;;15.95;8.90;;;19.00;89.30;;;;;;5052869;28;20021;-71
2023/10/02 01:30:16;;;;;;;14.65;7.50;;;19.00;89.10;;;;;;5052866;28;20029;-71
2023/10/02 01:35:48;;;;;;;13.02;8.02;;;19.00;89.10;;;;;;5054247;28;20071;-71
2023/10/02 01:38:31;;;;;;;13.95;7.85;;;18.90;88.80;;;;;;5054128;28;20119;-70
2023/10/02 01:41:04;;;;;;;11.77;7.60;;;18.90;88.70;;;;;;5054402;28;20110;-71
2023/10/02 01:43:43;;;;;;;10.35;7.65;;;18.90;88.80;;;;;;5054156;28;20174;-70
2023/10/02 01:46:10;;;;;;;12.90;7.93;;;18.80;88.70;;;;;;5054186;28;20361;-70
2023/10/02 01:48:37;;;;;;;12.55;8.63;;;18.80;88.70;;;;;;5052738;28;20063;-70
2023/10/02 01:51:50;;;;;;;13.38;8.32;;;18.80;88.80;;;;;;5054060;28;20029;-70
2023/10/02 01:54:15;;;;;;;13.68;7.95;;;18.70;88.80;;;;;;5046841;28;20052;-70
2023/10/02 01:56:46;;;;;;;11.48;8.32;;;18.70;89.00;;;;;;5053644;28;20096;-71
2023/10/02 01:59:19;;;;;;;11.38;8.25;;;18.70;89.30;;;;;;5053888;28;20024;-70
2023/10/02 02:01:52;;;;;;;12.40;8.68;;;18.70;89.30;;;;;;5053748;28;20302;-71
2023/10/02 02:04:28;;;;;;;14.73;8.25;;;18.60;89.40;;;;;;5053837;28;20492;-71
2023/10/02 02:06:56;;;;;;;15.02;8.85;;;18.60;89.50;;;;;;5053981;28;20032;-70
2023/10/02 02:09:23;;;;;;;14.95;8.23;;;18.60;89.60;;;;;;5053469;28;20057;-71
2023/10/02 02:12:05;;;;;;;16.45;9.02;;;18.60;89.60;;;;;;5053204;28;20031;-70
2023/10/02 02:14:51;;;;;;;13.55;7.82;;;18.50;89.70;;;;;;5052932;28;20124;-71
2023/10/02 02:17:21;;;;;;;12.20;8.15;;;18.60;89.90;;;;;;5053116;28;20029;-71
2023/10/02 02:19:50;;;;;;;13.77;8.50;;;18.60;90.00;;;;;;5053571;28;20123;-70
2023/10/02 02:22:25;;;;;;;15.68;8.50;;;18.50;90.00;;;;;;5052746;28;20025;-70
2023/10/02 02:24:53;;;;;;;19.35;8.43;;;18.50;90.00;;;;;;5052025;28;20021;-70
2023/10/02 02:27:19;;;;;;;16.23;8.43;;;18.50;90.10;;;;;;5053307;28;20044;-71
2023/10/02 02:29:54;;;;;;;13.48;8.68;;;18.50;90.10;;;;;;5052982;28;20013;-71
2023/10/02 02:32:36;;;;;;;11.95;8.65;;;18.50;90.10;;;;;;5053413;28;20024;-70
2023/10/02 02:35:06;;;;;;;11.18;8.18;;;18.50;90.20;;;;;;5053018;28;20112;-71
2023/10/02 02:37:33;;;;;;;12.10;8.48;;;18.50;90.20;;;;;;5053316;28;20098;-71
2023/10/02 02:42:50;;;;;;;11.75;8.55;;;18.50;90.30;;;;;;5053330;28;20504;-70
2023/10/02 02:45:28;;;;;;;15.25;8.27;;;18.50;90.30;;;;;;5053116;28;20487;-71
2023/10/02 02:48:04;;;;;;;17.80;8.70;;;18.50;90.30;;;;;;5051441;28;20076;-70
2023/10/02 02:50:37;;;;;;;15.63;8.43;;;18.50;90.30;;;;;;5052970;28;20017;-70
2023/10/02 02:53:40;;;;;;;12.18;8.63;;;18.50;90.30;;;;;;5052654;28;20032;-71
2023/10/02 02:56:25;;;;;;;18.30;9.25;;;18.50;90.30;;;;;;5050591;28;20581;-71
2023/10/02 02:58:55;;;;;;;13.35;8.93;;;18.50;90.30;;;;;;5052921;28;20028;-70
2023/10/02 03:01:22;;;;;;;11.23;8.57;;;18.40;90.30;;;;;;5051211;28;20025;-70
2023/10/02 03:04:10;;;;;;;18.20;9.50;;;18.40;90.30;;;;;;5052160;28;20491;-70
2023/10/02 03:06:36;;;;;;;10.60;7.93;;;18.40;90.30;;;;;;5053081;28;20032;-70
2023/10/02 03:09:05;;;;;;;19.95;8.57;;;18.50;90.30;;;;;;5050919;28;20401;-71
2023/10/02 03:11:32;;;;;;;14.25;8.70;;;18.40;90.30;;;;;;5051835;28;20021;-70
2023/10/02 03:14:13;;;;;;;14.77;8.18;;;18.40;90.30;;;;;;5052407;28;20036;-70
2023/10/02 03:16:41;;;;;;;20.00;8.60;;;18.40;90.30;;;;;;5052603;28;20028;-70
2023/10/02 03:19:07;;;;;;;12.18;8.32;;;18.40;90.30;;;;;;5052436;28;20021;-70
2023/10/02 03:21:37;;;;;;;18.58;9.18;;;18.30;90.40;;;;;;5051950;28;20025;-71
2023/10/02 03:24:04;;;;;;;15.88;8.52;;;18.30;90.40;;;;;;5052370;28;20029;-70
2023/10/02 03:29:11;;;;;;;20.35;8.98;;;18.30;90.60;;;;;;5052022;28;20490;-71
2023/10/02 03:31:51;;;;;;;17.13;9.35;;;18.30;90.60;;;;;;5051999;28;20025;-70
2023/10/02 03:34:30;;;;;;;11.75;8.55;;;18.30;90.60;;;;;;5052377;28;20040;-70
2023/10/02 03:37:13;;;;;;;13.48;8.45;;;18.30;90.70;;;;;;5052320;28;20441;-71
2023/10/02 03:39:52;;;;;;;13.32;9.02;;;18.30;90.80;;;;;;5052469;28;20240;-71
2023/10/02 03:42:22;;;;;;;14.20;8.80;;;18.30;90.90;;;;;;5052158;28;20350;-70
2023/10/02 03:44:58;;;;;;;17.48;8.48;;;18.20;91.00;;;;;;5051933;28;20029;-72
2023/10/02 03:47:33;;;;;;;14.38;9.20;;;18.20;90.90;;;;;;5052368;28;20128;-70
2023/10/02 03:50:03;;;;;;;15.35;8.90;;;18.20;90.90;;;;;;5052416;28;20456;-71
2023/10/02 03:52:31;;;;;;;14.23;9.32;;;18.20;91.00;;;;;;5052284;28;20025;-71
2023/10/02 03:54:58;;;;;;;15.00;8.45;;;18.20;91.00;;;;;;5052105;28;20033;-71
2023/10/02 04:00:28;;;;;;;18.60;9.88;;;18.20;91.10;;;;;;5010363;28;20033;-70
2023/10/02 04:02:59;;;;;;;12.70;9.00;;;18.10;91.00;;;;;;5044110;28;20065;-71
2023/10/02 04:10:55;;;;;;;14.93;9.13;;;18.10;91.10;;;;;;5051700;28;20345;-70
2023/10/02 04:13:39;;;;;;;13.25;9.65;;;18.10;91.10;;;;;;5051939;28;20116;-70
2023/10/02 04:18:58;;;;;;;12.85;8.95;;;18.10;91.00;;;;;;5056595;28;20519;-70
2023/10/02 04:21:25;;;;;;;15.10;8.40;;;18.10;91.10;;;;;;5056195;28;20025;-70
2023/10/02 04:23:54;;;;;;;16.55;8.48;;;18.10;91.10;;;;;;5056150;28;20403;-71
2023/10/02 04:26:21;;;;;;;14.95;8.88;;;18.10;91.20;;;;;;5054645;28;20021;-70
2023/10/02 04:29:14;;;;;;;23.33;9.57;;;18.00;91.10;;;;;;5055622;28;20021;-70
2023/10/02 04:31:44;;;;;;;28.70;10.32;;;18.00;91.20;;;;;;5055454;28;20499;-71
2023/10/02 04:36:42;;;;;;;;;;;18.00;91.30;;;;;;5054269;28;20037;-70
2023/10/02 04:42:11;;;;;;;18.27;8.93;;;17.90;91.30;;;;;;5055039;28;20025;-71
2023/10/02 04:44:44;;;;;;;15.18;8.25;;;17.90;91.30;;;;;;5055496;28;20028;-71
2023/10/02 04:47:20;;;;;;;16.75;8.70;;;17.90;91.40;;;;;;5055552;28;20041;-70
2023/10/02 04:50:34;;;;;;;16.85;8.68;;;17.90;91.40;;;;;;5055265;28;20091;-70
2023/10/02 04:52:57;;;;;;;24.65;9.13;;;17.90;91.40;;;;;;5055434;28;20040;-71
2023/10/02 04:55:28;;;;;;;19.77;9.43;;;17.90;91.40;;;;;;5053625;28;20508;-70
2023/10/02 04:58:19;;;;;;;18.98;8.93;;;17.90;91.40;;;;;;5055312;28;20021;-70
2023/10/02 05:03:55;;;;;;;25.88;9.25;;;17.80;91.30;;;;;;5055436;28;20400;-70
2023/10/02 05:11:55;;;;;;;19.63;9.00;;;17.80;91.20;;;;;;5055099;28;20029;-70
2023/10/02 05:14:48;;;;;;;22.95;9.05;;;17.80;91.30;;;;;;5054251;28;20176;-71
2023/10/02 05:20:01;;;;;;;12.98;7.78;;;17.70;91.20;;;;;;5054870;28;20090;-71
2023/10/02 05:22:31;;;;;;;19.17;9.30;;;17.70;91.20;;;;;;5053956;28;20025;-71
2023/10/02 05:24:58;;;;;;;17.42;8.95;;;17.70;91.30;;;;;;5054795;28;20036;-70
2023/10/02 05:27:36;;;;;;;19.25;9.27;;;17.70;91.40;;;;;;5054919;28;20124;-70
2023/10/02 05:30:17;;;;;;;16.20;9.43;;;17.70;91.40;;;;;;5055067;28;20055;-70
2023/10/02 05:32:43;;;;;;;18.30;9.05;;;17.70;91.60;;;;;;5054876;28;20481;-71
2023/10/02 05:37:42;;;;;;;21.23;9.15;;;17.70;91.50;;;;;;5053750;28;20064;-70
2023/10/02 05:50:52;;;;;;;17.55;8.75;;;17.60;91.40;;;;;;5054844;28;20472;-70
2023/10/02 05:53:20;;;;;;;21.30;8.73;;;17.60;91.50;;;;;;5054127;28;20074;-70
2023/10/02 05:58:41;;;;;;;26.55;9.77;;;17.70;91.70;;;;;;5054015;28;20044;-70
2023/10/02 06:01:18;;;;;;;16.60;8.32;;;17.70;91.70;;;;;;5054398;28;20025;-71
2023/10/02 06:03:53;;;;;;;13.95;8.85;;;17.70;91.80;;;;;;5054236;28;20433;-70
2023/10/02 06:06:21;;;;;;;21.92;9.75;;;17.80;92.00;;;;;;5054141;28;20036;-71
2023/10/02 06:08:56;;;;;;;21.13;8.77;;;17.90;92.30;;;;;;5053868;28;20029;-71
2023/10/02 06:11:26;;;;;;;25.10;9.68;;;17.90;92.30;;;;;;5052177;28;20068;-71
2023/10/02 06:14:10;;;;;;;74.45;35.33;;;17.90;92.40;;;;;;5053221;28;20513;-70
2023/10/02 06:16:39;;;;;;;49.28;26.02;;;18.00;92.30;;;;;;5042608;28;20045;-70
2023/10/02 06:19:13;;;;;;;32.85;16.98;;;18.00;92.10;;;;;;5053628;28;20512;-70
2023/10/02 06:21:45;;;;;;;22.25;12.80;;;18.00;92.00;;;;;;5053495;28;20031;-70
2023/10/02 06:24:16;;;;;;;20.75;10.90;;;18.00;92.10;;;;;;5053552;28;20025;-71
2023/10/02 06:26:55;;;;;;;15.90;10.60;;;18.10;92.10;;;;;;5053552;28;20536;-70
2023/10/02 06:29:24;;;;;;;26.42;12.95;;;18.10;92.20;;;;;;5053240;28;20036;-70
2023/10/02 06:31:58;;;;;;;27.27;14.65;;;18.10;92.20;;;;;;5053224;28;20029;-70
2023/10/02 06:34:37;;;;;;;26.15;15.32;;;18.10;92.10;;;;;;5053133;28;20188;-70
2023/10/02 06:37:07;;;;;;;29.25;13.68;;;18.20;92.00;;;;;;5053213;28;20057;-70
2023/10/02 06:39:37;;;;;;;29.38;15.10;;;18.30;92.10;;;;;;5051154;28;20087;-70
2023/10/02 06:42:08;;;;;;;29.13;17.35;;;18.30;92.10;;;;;;5052569;28;20047;-70
2023/10/02 06:44:41;;;;;;;35.92;17.95;;;18.30;92.40;;;;;;5052785;28;20025;-70
2023/10/02 06:47:13;;;;;;;34.08;20.13;;;18.30;92.10;;;;;;5052682;28;20051;-69
2023/10/02 06:49:44;;;;;;;32.47;20.13;;;18.40;92.30;;;;;;5051463;28;20481;-69
2023/10/02 06:52:15;;;;;;;33.65;19.52;;;18.40;92.30;;;;;;5052461;28;20056;-70
2023/10/02 06:54:45;;;;;;;30.60;16.20;;;18.40;92.40;;;;;;5052449;28;20079;-71
2023/10/02 06:57:13;;;;;;;28.25;15.02;;;18.50;92.50;;;;;;5052364;28;20099;-69
2023/10/02 06:59:51;;;;;;;24.98;13.48;;;18.50;92.60;;;;;;5052721;28;20384;-71
2023/10/02 07:02:18;;;;;;;17.70;11.52;;;18.60;92.60;;;;;;5052528;28;20021;-69
2023/10/02 07:04:47;;;;;;;16.77;11.20;;;18.70;92.90;;;;;;5051353;28;20366;-70
2023/10/02 07:07:17;;;;;;;16.58;10.80;;;18.70;92.70;;;;;;5052196;28;20101;-70
2023/10/02 07:09:43;;;;;;;18.77;10.95;;;18.80;92.70;;;;;;5052601;28;20040;-70
2023/10/02 07:12:09;;;;;;;16.05;10.07;;;18.90;92.70;;;;;;5052336;28;20029;-70
2023/10/02 07:14:36;;;;;;;17.88;10.27;;;19.00;92.60;;;;;;5052340;28;20426;-70
2023/10/02 07:17:17;;;;;;;16.05;9.70;;;19.00;92.60;;;;;;5052395;28;20422;-70
2023/10/02 07:19:48;;;;;;;14.85;9.73;;;19.00;92.70;;;;;;5052676;28;20109;-70
2023/10/02 07:22:22;;;;;;;18.37;10.87;;;19.10;92.70;;;;;;5052482;28;20021;-70
2023/10/02 07:24:47;;;;;;;19.92;11.50;;;19.20;92.70;;;;;;5052743;28;20087;-71
2023/10/02 07:27:26;;;;;;;15.88;10.63;;;19.20;92.60;;;;;;5052557;28;20021;-70
2023/10/02 07:29:57;;;;;;;15.35;9.70;;;19.30;92.70;;;;;;5052595;28;20116;-70
2023/10/02 07:32:31;;;;;;;12.27;9.95;;;19.40;92.70;;;;;;5053053;28;20067;-71
2023/10/02 07:35:09;;;;;;;17.15;10.18;;;19.40;92.60;;;;;;5052613;28;20044;-70
2023/10/02 07:37:38;;;;;;;16.60;10.43;;;19.50;92.60;;;;;;5052610;28;20071;-70
2023/10/02 07:40:06;;;;;;;14.27;9.95;;;19.60;92.70;;;;;;5052520;28;20109;-71
2023/10/02 07:42:33;;;;;;;15.80;10.05;;;19.60;92.60;;;;;;5051519;28;20025;-70
2023/10/02 07:45:14;;;;;;;15.32;10.60;;;19.70;92.50;;;;;;5052279;28;20112;-71
2023/10/02 07:47:55;;;;;;;16.58;10.88;;;19.70;92.50;;;;;;5052361;28;20049;-70
2023/10/02 07:50:33;;;;;;;17.15;9.77;;;19.70;92.40;;;;;;5052493;28;20516;-71
2023/10/02 07:53:01;;;;;;;15.73;9.60;;;19.80;92.40;;;;;;5056338;28;20032;-71
2023/10/02 07:55:28;;;;;;;16.52;9.60;;;19.90;92.30;;;;;;5055754;28;20021;-71
2023/10/02 07:58:00;;;;;;;16.67;10.38;;;19.90;92.20;;;;;;5056504;28;20033;-71
2023/10/02 08:00:38;;;;;;;17.48;9.93;;;20.00;92.20;;;;;;5053962;28;20040;-71
2023/10/02 08:05:56;;;;;;;13.77;9.25;;;20.10;92.20;;;;;;5053221;28;20496;-71
2023/10/02 08:08:31;;;;;;;17.63;8.75;;;20.20;92.10;;;;;;5054961;28;20033;-71
2023/10/02 08:10:58;;;;;;;22.67;9.32;;;20.20;92.00;;;;;;5052945;28;20032;-72
2023/10/02 08:13:35;;;;;;;17.88;8.77;;;20.20;92.00;;;;;;5052422;28;20079;-72
2023/10/02 08:16:14;;;;;;;20.40;9.35;;;20.30;91.90;;;;;;5053515;28;20083;-71
2023/10/02 08:18:59;;;;;;;15.90;10.07;;;20.40;91.80;;;;;;5052903;28;20397;-72
2023/10/02 08:21:36;;;;;;;18.17;10.27;;;20.40;91.70;;;;;;5054491;28;20083;-71
2023/10/02 08:24:05;;;;;;;14.15;9.43;;;20.50;91.70;;;;;;5052831;28;20056;-71
2023/10/02 08:26:43;;;;;;;16.65;10.73;;;20.50;91.50;;;;;;5053417;28;20017;-71
2023/10/02 08:29:14;;;;;;;16.63;9.88;;;20.60;91.40;;;;;;5052165;28;20113;-72
2023/10/02 08:31:43;;;;;;;19.90;9.65;;;20.60;91.40;;;;;;5052211;28;20033;-71
2023/10/02 08:34:13;;;;;;;16.10;9.25;;;20.70;91.30;;;;;;5055511;28;20029;-73
2023/10/02 08:36:42;;;;;;;15.52;9.77;;;20.70;91.20;;;;;;5052588;28;20095;-72
2023/10/02 08:39:08;;;;;;;15.70;9.00;;;20.70;91.00;;;;;;5054321;28;20032;-72
2023/10/02 08:41:43;;;;;;;15.50;8.73;;;20.80;91.00;;;;;;5055788;28;20025;-71
2023/10/02 08:44:20;;;;;;;12.50;9.57;;;20.80;91.10;;;;;;5055796;28;20036;-71
2023/10/02 08:46:48;;;;;;;19.10;9.95;;;20.90;91.00;;;;;;5055667;28;20036;-72
2023/10/02 08:49:13;;;;;;;18.13;9.38;;;21.00;90.90;;;;;;5055218;28;20116;-71
2023/10/02 08:51:48;;;;;;;15.48;9.27;;;21.10;90.80;;;;;;5055524;28;20090;-71
2023/10/02 08:54:15;;;;;;;13.52;8.88;;;21.10;90.60;;;;;;5055528;28;20040;-71
2023/10/02 08:56:44;;;;;;;17.02;9.35;;;21.10;90.40;;;;;;5055718;28;20051;-72
2023/10/02 08:59:16;;;;;;;11.77;8.73;;;21.20;90.40;;;;;;5055311;28;20021;-71
2023/10/02 09:01:47;;;;;;;18.27;8.60;;;21.20;90.30;;;;;;5054896;28;20036;-71
2023/10/02 09:04:22;;;;;;;16.73;8.98;;;21.20;90.40;;;;;;5055701;28;20043;-72
2023/10/02 09:06:49;;;;;;;13.85;8.93;;;21.30;90.50;;;;;;5055583;28;20025;-71
2023/10/02 09:11:53;;;;;;;13.13;8.70;;;21.40;90.40;;;;;;5055191;28;20116;-71
2023/10/02 09:14:21;;;;;;;14.57;8.50;;;21.50;90.10;;;;;;5054846;28;20142;-72
2023/10/02 09:17:20;;;;;;;13.68;8.63;;;21.60;90.00;;;;;;5054948;28;20017;-72
2023/10/02 09:20:07;;;;;;;12.75;8.23;;;21.60;90.10;;;;;;5055420;28;20021;-71
2023/10/02 09:22:37;;;;;;;16.80;8.70;;;21.70;90.00;;;;;;5054831;28;20032;-70
2023/10/02 09:25:23;;;;;;;14.20;8.75;;;21.70;89.90;;;;;;5054764;28;20491;-71
2023/10/02 09:27:57;;;;;;;13.93;9.07;;;21.80;90.00;;;;;;5053399;28;20040;-72
2023/10/02 09:30:36;;;;;;;22.55;10.07;;;21.80;90.00;;;;;;5054845;28;20025;-71
2023/10/02 09:33:08;;;;;;;11.85;8.90;;;21.90;90.00;;;;;;5054722;28;20061;-72
2023/10/02 09:35:42;;;;;;;13.38;8.77;;;21.90;90.00;;;;;;5054613;28;20033;-71
2023/10/02 09:38:10;;;;;;;14.70;8.70;;;22.00;89.80;;;;;;5054726;28;20017;-71
2023/10/02 09:43:32;;;;;;;14.73;8.63;;;22.10;89.80;;;;;;5054638;28;20044;-71
2023/10/02 09:46:05;;;;;;;13.15;8.43;;;22.20;89.30;;;;;;5054548;28;20025;-72
2023/10/02 09:51:30;;;;;;;13.13;8.30;;;22.30;88.80;;;;;;5033420;28;20117;-72
2023/10/02 09:54:14;;;;;;;17.55;9.15;;;22.30;88.60;;;;;;5033273;28;20045;-73
2023/10/02 09:56:51;;;;;;;12.88;7.93;;;22.30;88.90;;;;;;5033234;28;20029;-72
2023/10/02 09:59:22;;;;;;;12.02;8.75;;;22.40;88.20;;;;;;5032999;28;20024;-72
2023/10/02 10:02:57;;;;;;;13.55;8.27;;;22.40;87.80;;;;;;5033802;28;20021;-71
2023/10/02 10:08:18;;;;;;;16.27;8.55;;;22.50;87.00;;;;;;5033823;28;20026;-72
2023/10/02 10:10:50;;;;;;;13.68;8.10;;;22.50;87.60;;;;;;5033187;28;20033;-73
2023/10/02 10:13:32;;;;;;;14.65;8.10;;;22.70;88.30;;;;;;5032558;28;20387;-72
2023/10/02 10:16:18;;;;;;;16.83;9.45;;;22.70;88.10;;;;;;5033710;28;20034;-72
2023/10/02 10:21:55;;;;;;;15.40;9.52;;;22.80;88.10;;;;;;5033501;28;20030;-72
2023/10/02 10:27:42;;;;;;;16.33;9.32;;;22.80;87.10;;;;;;5033400;28;20484;-73
2023/10/02 10:30:27;;;;;;;13.43;7.93;;;22.80;87.30;;;;;;5032390;28;20123;-72
2023/10/02 10:35:34;;;;;;;10.02;7.72;;;22.90;85.70;;;;;;5033567;28;20084;-73
2023/10/02 10:38:29;;;;;;;15.95;8.95;;;23.00;85.70;;;;;;5033375;28;20377;-74
2023/10/02 10:41:01;;;;;;;12.85;8.20;;;23.10;85.50;;;;;;5033080;28;20025;-73
2023/10/02 10:43:55;;;;;;;11.70;7.65;;;23.10;86.00;;;;;;5033444;28;20364;-73
2023/10/02 10:46:17;;;;;;;13.18;8.00;;;23.20;85.30;;;;;;5032853;28;20139;-73
2023/10/02 10:49:08;;;;;;;11.95;7.30;;;23.20;84.50;;;;;;5032988;28;20521;-74
2023/10/02 10:51:36;;;;;;;16.65;7.05;;;23.20;83.80;;;;;;5032176;28;20087;-73
2023/10/02 10:54:12;;;;;;;14.75;8.55;;;23.20;83.60;;;;;;5033087;28;20041;-75
2023/10/02 10:56:44;;;;;;;12.52;7.40;;;23.30;84.70;;;;;;5033372;28;20025;-74
2023/10/02 10:59:12;;;;;;;11.98;7.32;;;23.40;84.60;;;;;;5032834;28;20117;-74
2023/10/02 11:01:47;;;;;;;12.75;7.70;;;23.40;84.10;;;;;;5033086;28;20473;-74
2023/10/02 11:04:26;;;;;;;17.92;7.93;;;23.40;83.80;;;;;;5033218;28;20025;-73
2023/10/02 11:06:52;;;;;;;14.43;7.72;;;23.50;84.80;;;;;;5038716;28;20094;-72
2023/10/02 11:09:18;;;;;;;16.50;7.93;;;23.60;84.30;;;;;;5048498;28;20029;-73
2023/10/02 11:11:53;;;;;;;11.32;7.70;;;23.60;84.00;;;;;;5052251;28;20117;-74
2023/10/02 11:14:35;;;;;;;16.13;7.93;;;23.60;83.50;;;;;;5050644;28;20033;-74
2023/10/02 11:17:04;;;;;;;;;;;23.60;83.00;;;;;;5048779;28;20020;-73
2023/10/02 11:22:18;;;;;;;10.30;7.22;;;23.70;83.00;;;;;;5052804;28;20021;-74
2023/10/02 11:24:44;;;;;;;14.05;7.80;;;23.70;82.60;;;;;;5052514;28;20029;-73
2023/10/02 11:27:17;;;;;;;12.05;7.13;;;23.80;82.30;;;;;;5053181;28;20453;-73
2023/10/02 11:29:45;;;;;;;19.50;8.27;;;23.80;81.40;;;;;;5052882;28;20074;-73
2023/10/02 11:32:19;;;;;;;12.77;7.53;;;23.90;82.20;;;;;;5052481;28;20059;-72
2023/10/02 11:34:49;;;;;;;11.20;6.88;;;23.90;82.20;;;;;;5052307;28;20036;-73
2023/10/02 11:37:16;;;;;;;13.85;7.30;;;23.90;81.30;;;;;;5052337;28;20025;-73
2023/10/02 11:39:50;;;;;;;13.80;7.28;;;24.00;81.60;;;;;;5052673;28;20048;-72
2023/10/02 11:42:17;;;;;;;13.70;7.05;;;24.00;81.80;;;;;;5052151;28;20032;-73
2023/10/02 11:44:43;;;;;;;13.80;7.55;;;24.10;80.90;;;;;;5052305;28;20059;-74
2023/10/02 11:47:09;;;;;;;9.30;7.35;;;24.10;80.90;;;;;;5052308;28;20077;-72
2023/10/02 11:49:36;;;;;;;12.50;7.40;;;24.20;80.00;;;;;;5051897;28;20029;-73
2023/10/02 11:52:02;;;;;;;10.10;7.20;;;24.10;80.60;;;;;;5052126;28;20029;-73
2023/10/02 11:54:28;;;;;;;20.05;7.43;;;24.20;80.60;;;;;;5052154;28;20362;-73
2023/10/02 11:56:54;;;;;;;11.30;6.90;;;24.20;80.50;;;;;;5052107;28;20460;-72
2023/10/02 11:59:20;;;;;;;9.30;6.90;;;24.20;80.00;;;;;;5052114;28;20045;-73
2023/10/02 12:01:49;;;;;;;16.70;7.40;;;24.30;79.60;;;;;;5051979;28;20067;-74
2023/10/02 12:04:15;;;;;;;14.48;7.50;;;24.30;80.10;;;;;;5052169;28;20087;-74
2023/10/02 12:06:41;;;;;;;15.30;7.57;;;24.30;79.50;;;;;;5051993;28;20026;-75
2023/10/02 12:09:07;;;;;;;12.32;7.80;;;24.30;79.20;;;;;;5052209;28;20453;-77
2023/10/02 12:11:35;;;;;;;11.95;7.05;;;24.30;78.80;;;;;;5052445;28;20068;-80
2023/10/02 12:14:02;;;;;;;16.90;7.78;;;24.30;78.90;;;;;;5052110;28;20033;-80
2023/10/02 12:16:28;;;;;;;14.05;7.45;;;24.30;79.40;;;;;;5051945;28;20041;-79
2023/10/02 12:18:54;;;;;;;16.80;7.45;;;24.40;80.00;;;;;;5051868;28;20025;-75
2023/10/02 12:21:21;;;;;;;9.95;7.72;;;24.40;79.40;;;;;;5052002;28;20028;-77
2023/10/02 12:23:48;;;;;;;10.52;6.97;;;24.50;79.10;;;;;;5052046;28;20064;-78
2023/10/02 12:26:15;;;;;;;13.70;7.63;;;24.50;78.50;;;;;;5051798;28;20495;-79
2023/10/02 12:28:41;;;;;;;13.07;8.02;;;24.50;78.80;;;;;;5051795;28;20039;-80
2023/10/02 12:31:13;;;;;;;17.27;7.43;;;24.60;78.70;;;;;;5050258;28;20087;-75
2023/10/02 12:33:40;;;;;;;12.05;7.93;;;24.70;78.10;;;;;;5050576;28;20036;-79
2023/10/02 12:36:12;;;;;;;15.73;8.40;;;24.70;77.80;;;;;;5051217;28;20022;-78
2023/10/02 12:38:40;;;;;;;11.10;7.90;;;24.70;77.60;;;;;;5054775;28;20033;-79
2023/10/02 12:41:22;;;;;;;24.73;8.60;;;24.80;78.40;;;;;;5055286;28;20100;-79
2023/10/02 12:43:55;;;;;;;18.80;8.70;;;24.80;76.90;;;;;;5055342;28;20096;-79
2023/10/02 12:46:26;;;;;;;13.43;7.55;;;24.90;75.70;;;;;;5055374;28;20035;-80
2023/10/02 12:48:52;;;;;;;15.75;8.52;;;24.90;75.90;;;;;;5054579;28;20064;-81
2023/10/02 12:51:19;;;;;;;15.32;7.72;;;24.90;77.00;;;;;;5055094;28;20017;-78
2023/10/02 12:53:45;;;;;;;11.95;7.47;;;24.90;78.10;;;;;;5055733;28;20388;-79
2023/10/02 12:56:20;;;;;;;13.23;7.40;;;24.90;78.20;;;;;;5055700;28;20108;-78
2023/10/02 12:58:50;;;;;;;17.67;7.50;;;24.90;77.40;;;;;;5055221;28;20029;-76
2023/10/02 13:01:24;;;;;;;16.77;7.38;;;24.90;76.50;;;;;;5055065;28;20109;-79
2023/10/02 13:03:54;;;;;;;12.50;7.13;;;24.90;76.50;;;;;;5055322;28;20029;-78
2023/10/02 13:06:22;;;;;;;14.30;7.45;;;24.90;77.60;;;;;;5055062;28;20017;-79
2023/10/02 13:08:48;;;;;;;20.55;7.88;;;24.90;77.50;;;;;;5055330;28;20040;-78
2023/10/02 13:11:19;;;;;;;12.45;6.78;;;25.00;77.00;;;;;;5055242;28;20017;-79
2023/10/02 13:13:46;;;;;;;11.87;6.47;;;25.00;77.10;;;;;;5054886;28;20500;-76
2023/10/02 13:16:19;;;;;;;20.42;8.77;;;25.00;77.80;;;;;;5055329;28;20082;-77
2023/10/02 13:18:45;;;;;;;17.30;7.57;;;25.00;78.00;;;;;;5055013;28;20442;-79
2023/10/02 13:21:14;;;;;;;13.02;6.95;;;25.00;76.90;;;;;;5054872;28;20025;-77
2023/10/02 13:23:41;;;;;;;11.60;7.38;;;25.10;76.70;;;;;;5054435;28;20033;-70
2023/10/02 13:26:10;;;;;;;17.63;7.32;;;25.10;77.00;;;;;;5054352;28;20028;-79
2023/10/02 13:28:37;;;;;;;16.65;7.38;;;25.10;77.20;;;;;;5054679;28;20024;-79
2023/10/02 13:31:13;;;;;;;14.98;7.55;;;25.10;78.30;;;;;;5054880;28;20332;-75
2023/10/02 13:33:51;;;;;;;14.82;7.28;;;25.10;78.20;;;;;;5054789;28;20112;-86
2023/10/02 13:36:22;;;;;;;17.40;7.90;;;25.10;78.10;;;;;;5054244;28;20017;-77
2023/10/02 13:38:58;;;;;;;12.57;7.50;;;25.10;76.10;;;;;;5054162;28;20076;-85
2023/10/02 13:41:26;;;;;;;16.80;6.93;;;25.10;75.90;;;;;;5053892;28;20017;-70
2023/10/02 13:43:54;;;;;;;13.85;7.07;;;25.10;77.20;;;;;;5053799;28;20025;-71
2023/10/02 13:46:22;;;;;;;12.27;7.28;;;25.10;76.50;;;;;;5053711;28;20048;-70
2023/10/02 13:48:49;;;;;;;13.57;7.15;;;25.10;74.90;;;;;;5053969;28;20041;-76
2023/10/02 13:51:18;;;;;;;12.15;7.15;;;25.10;75.50;;;;;;5054084;28;20108;-71
2023/10/02 13:53:44;;;;;;;8.45;6.70;;;25.10;75.50;;;;;;5054430;28;20151;-77
2023/10/02 13:56:16;;;;;;;10.93;7.78;;;25.10;76.40;;;;;;5054473;28;20025;-76
2023/10/02 13:58:48;;;;;;;11.35;7.32;;;25.10;75.70;;;;;;5054437;28;20021;-76
2023/10/02 14:01:14;;;;;;;8.95;6.32;;;25.10;74.80;;;;;;5054087;28;20017;-73
2023/10/02 14:03:45;;;;;;;20.75;7.53;;;25.10;75.70;;;;;;5053993;28;20489;-78
2023/10/02 14:06:12;;;;;;;14.57;7.30;;;25.10;76.00;;;;;;5054250;28;20377;-78
2023/10/02 14:08:42;;;;;;;14.68;7.18;;;25.10;74.80;;;;;;5051717;28;20036;-76
2023/10/02 14:11:08;;;;;;;11.52;7.03;;;25.10;75.00;;;;;;5043751;28;20130;-77
2023/10/02 14:13:35;;;;;;;8.35;7.00;;;25.10;75.60;;;;;;5042987;28;20123;-77
2023/10/02 14:16:07;;;;;;;11.60;6.57;;;25.10;76.30;;;;;;5042521;28;20021;-78
2023/10/02 14:18:38;;;;;;;11.70;7.10;;;25.10;76.20;;;;;;5041748;28;20018;-78
2023/10/02 14:21:09;;;;;;;15.10;6.70;;;25.10;75.50;;;;;;5041763;28;20465;-78
2023/10/02 14:23:36;;;;;;;11.32;6.93;;;25.10;75.50;;;;;;5041917;28;20033;-77